Time;durP1;ratioP1;P1;durP2;ratioP2;P2;SDS_P1;SDS_P2;PMS_P1;PMS_P2;Temp;Humidity;BMP_temperature;BMP_pressure;BME280_temperature;BME280_humidity;BME280_pressure;Samples;Min_cycle;Max_cycle;Signal;HPM_P1;HPM_P2
2023/04/21 00:01:01;;;;;;;18.92;9.40;;;9.20;99.90;;;;;;5046896;28;20545;-63
2023/04/21 00:03:28;;;;;;;20.17;9.52;;;9.20;99.90;;;;;;5048793;28;20045;-63
2023/04/21 00:05:57;;;;;;;26.63;9.98;;;9.20;99.90;;;;;;5047247;28;20045;-63
2023/04/21 00:08:25;;;;;;;22.23;9.40;;;9.20;99.90;;;;;;5047534;28;20056;-63
2023/04/21 00:10:50;;;;;;;16.00;9.55;;;9.10;99.90;;;;;;5043585;28;20053;-63
2023/04/21 00:13:16;;;;;;;18.67;8.55;;;9.20;99.90;;;;;;5047905;28;20528;-63
2023/04/21 00:15:43;;;;;;;14.57;8.80;;;9.20;99.90;;;;;;5048340;28;20045;-63
2023/04/21 00:18:09;;;;;;;18.77;8.90;;;9.10;99.90;;;;;;5029127;28;20502;-63
2023/04/21 00:20:35;;;;;;;18.75;9.02;;;9.10;99.90;;;;;;5030489;28;20045;-63
2023/04/21 00:23:02;;;;;;;16.65;8.90;;;9.10;99.90;;;;;;5045169;28;20521;-68
2023/04/21 00:25:28;;;;;;;14.77;9.07;;;9.10;99.90;;;;;;5037654;28;20041;-63
2023/04/21 00:27:53;;;;;;;22.30;8.55;;;9.10;99.90;;;;;;5046578;28;20053;-64
2023/04/21 00:30:19;;;;;;;19.73;9.38;;;9.10;99.90;;;;;;5048141;28;20399;-63
2023/04/21 00:32:45;;;;;;;17.85;8.48;;;9.10;99.90;;;;;;5047560;28;20064;-63
2023/04/21 00:35:10;;;;;;;15.55;9.15;;;9.10;99.90;;;;;;5046642;28;20086;-63
2023/04/21 00:37:36;;;;;;;16.90;8.88;;;9.10;99.90;;;;;;5047626;28;20099;-63
2023/04/21 00:40:03;;;;;;;17.25;8.73;;;9.00;99.90;;;;;;5046637;28;20102;-63
2023/04/21 00:42:29;;;;;;;23.13;9.25;;;9.00;99.90;;;;;;5048302;28;20045;-63
2023/04/21 00:44:55;;;;;;;19.05;8.38;;;9.00;99.90;;;;;;5024808;28;20060;-63
2023/04/21 00:47:21;;;;;;;23.17;9.93;;;9.00;99.90;;;;;;5047483;28;20052;-63
2023/04/21 00:49:47;;;;;;;15.75;8.80;;;9.00;99.90;;;;;;5046674;28;20049;-63
2023/04/21 00:52:15;;;;;;;17.70;8.57;;;8.90;99.90;;;;;;5046866;28;20590;-63
2023/04/21 00:54:41;;;;;;;19.95;8.25;;;9.00;99.90;;;;;;5047498;28;20156;-64
2023/04/21 00:57:08;;;;;;;17.60;9.05;;;9.00;99.90;;;;;;5046227;28;20531;-63
2023/04/21 00:59:33;;;;;;;18.48;8.95;;;8.90;99.90;;;;;;5047478;28;20130;-63
2023/04/21 01:01:59;;;;;;;20.27;9.65;;;9.00;99.90;;;;;;5045569;28;20479;-63
2023/04/21 01:04:25;;;;;;;18.10;8.90;;;8.90;99.90;;;;;;5048175;28;20045;-70
2023/04/21 01:06:52;;;;;;;22.33;10.18;;;8.90;99.90;;;;;;5046100;28;20491;-63
2023/04/21 01:09:18;;;;;;;28.73;9.30;;;8.90;99.90;;;;;;5046811;28;20044;-63
2023/04/21 01:12:04;;;;;;;19.92;9.40;;;8.80;99.90;;;;;;5025096;28;20053;-62
2023/04/21 01:14:30;;;;;;;19.23;9.50;;;8.80;99.90;;;;;;5045409;28;20045;-63
2023/04/21 01:16:56;;;;;;;19.77;8.73;;;8.70;99.90;;;;;;5047025;28;20429;-63
2023/04/21 01:19:23;;;;;;;18.73;9.18;;;8.60;99.90;;;;;;5045789;28;20044;-63
2023/04/21 01:21:52;;;;;;;17.48;9.60;;;8.60;99.90;;;;;;5009264;28;20049;-62
2023/04/21 01:24:18;;;;;;;18.90;9.07;;;8.60;99.90;;;;;;5046153;28;20080;-63
2023/04/21 01:26:48;;;;;;;16.23;9.50;;;8.60;99.90;;;;;;5046941;28;20045;-62
2023/04/21 01:29:14;;;;;;;15.00;9.17;;;8.50;99.90;;;;;;5046061;28;20509;-63
2023/04/21 01:31:41;;;;;;;22.65;9.52;;;8.50;99.90;;;;;;5046074;28;20102;-63
2023/04/21 01:34:07;;;;;;;18.70;8.77;;;8.50;99.90;;;;;;5023852;28;20483;-62
2023/04/21 01:36:34;;;;;;;21.80;9.98;;;8.50;99.90;;;;;;5043921;28;20067;-63
2023/04/21 01:39:00;;;;;;;16.27;9.13;;;8.50;99.90;;;;;;5046647;28;20041;-63
2023/04/21 01:41:26;;;;;;;20.58;9.77;;;8.40;99.90;;;;;;5024575;28;20052;-63
2023/04/21 01:43:52;;;;;;;17.75;9.25;;;8.40;99.90;;;;;;5039834;28;20517;-62
2023/04/21 01:46:20;;;;;;;17.45;9.38;;;8.40;99.90;;;;;;5045741;28;20499;-63
2023/04/21 01:48:46;;;;;;;18.25;8.77;;;8.40;99.90;;;;;;5046045;28;20056;-62
2023/04/21 01:51:12;;;;;;;20.63;9.75;;;8.40;99.90;;;;;;5045756;28;20554;-63
2023/04/21 01:53:37;;;;;;;23.83;10.13;;;8.40;99.90;;;;;;5023732;28;20080;-63
2023/04/21 01:56:03;;;;;;;25.33;9.27;;;8.40;99.90;;;;;;5045656;28;20037;-64
2023/04/21 01:58:29;;;;;;;19.38;9.35;;;8.40;99.90;;;;;;5041465;28;20490;-84
2023/04/21 02:00:55;;;;;;;20.27;10.77;;;8.40;99.90;;;;;;5038987;28;20061;-63
2023/04/21 02:03:21;;;;;;;16.35;9.82;;;8.40;99.90;;;;;;5045357;28;20132;-63
2023/04/21 02:05:46;;;;;;;17.15;10.18;;;8.30;99.90;;;;;;5046040;28;20051;-63
2023/04/21 02:08:12;;;;;;;21.60;10.63;;;8.30;99.90;;;;;;5045364;28;20384;-63
2023/04/21 02:10:38;;;;;;;21.80;10.27;;;8.30;99.90;;;;;;5040236;28;20070;-63
2023/04/21 02:13:03;;;;;;;22.83;9.70;;;8.30;99.90;;;;;;5045997;28;20052;-63
2023/04/21 02:15:29;;;;;;;20.77;9.68;;;8.20;99.90;;;;;;5044608;28;20059;-63
2023/04/21 02:17:55;;;;;;;24.83;9.55;;;8.20;99.90;;;;;;5046569;28;20057;-63
2023/04/21 02:20:21;;;;;;;23.02;9.88;;;8.20;99.90;;;;;;5026677;28;20080;-63
2023/04/21 02:22:46;;;;;;;21.35;9.77;;;8.30;99.90;;;;;;5028071;28;20036;-63
2023/04/21 02:25:12;;;;;;;19.60;9.25;;;8.30;99.90;;;;;;5044694;28;20040;-63
2023/04/21 02:27:38;;;;;;;22.23;9.50;;;8.30;99.90;;;;;;5044998;28;20438;-63
2023/04/21 02:30:04;;;;;;;22.90;8.38;;;8.30;99.90;;;;;;5045569;28;20581;-77
2023/04/21 02:32:30;;;;;;;16.38;9.13;;;8.30;99.90;;;;;;5045140;28;20055;-63
2023/04/21 02:34:56;;;;;;;20.63;8.43;;;8.30;99.90;;;;;;5045672;28;20522;-63
2023/04/21 02:37:21;;;;;;;22.35;9.70;;;8.30;99.90;;;;;;5022896;28;20057;-63
2023/04/21 02:39:47;;;;;;;23.48;9.05;;;8.30;99.90;;;;;;5027776;28;20064;-63
2023/04/21 02:42:13;;;;;;;16.42;8.38;;;8.30;99.90;;;;;;5026978;28;20052;-63
2023/04/21 02:44:39;;;;;;;16.10;9.32;;;8.30;99.90;;;;;;5027568;28;20407;-63
2023/04/21 02:47:04;;;;;;;17.73;8.57;;;8.30;99.90;;;;;;5044375;28;20547;-63
2023/04/21 02:49:30;;;;;;;14.48;8.27;;;8.20;99.90;;;;;;5045261;28;20057;-63
2023/04/21 02:51:57;;;;;;;19.30;10.02;;;8.20;99.90;;;;;;5011124;28;20064;-64
2023/04/21 02:54:23;;;;;;;18.02;8.57;;;8.20;99.90;;;;;;5044302;28;20128;-63
2023/04/21 02:56:48;;;;;;;25.15;8.77;;;8.10;99.90;;;;;;5045627;28;20456;-63
2023/04/21 02:59:17;;;;;;;25.20;8.25;;;8.10;99.90;;;;;;5043995;28;20071;-64
2023/04/21 03:01:43;;;;;;;17.70;8.77;;;8.10;99.90;;;;;;5045433;28;20057;-63
2023/04/21 03:04:08;;;;;;;25.05;8.43;;;8.10;99.90;;;;;;5044726;28;20045;-63
2023/04/21 03:06:34;;;;;;;19.10;8.48;;;8.20;99.90;;;;;;5044975;28;20444;-62
2023/04/21 03:09:00;;;;;;;17.40;8.07;;;8.10;99.90;;;;;;5027144;28;20041;-63
2023/04/21 03:11:25;;;;;;;19.20;8.38;;;8.00;99.90;;;;;;5044159;28;20095;-63
2023/04/21 03:13:51;;;;;;;12.30;8.02;;;8.10;99.90;;;;;;5045795;28;20048;-63
2023/04/21 03:16:18;;;;;;;20.33;7.75;;;8.10;99.90;;;;;;5026370;28;20053;-63
2023/04/21 03:18:44;;;;;;;16.90;7.78;;;8.10;99.90;;;;;;5045966;28;20116;-63
2023/04/21 03:21:10;;;;;;;15.25;7.90;;;8.10;99.90;;;;;;5040272;28;20256;-63
2023/04/21 03:23:36;;;;;;;15.73;7.95;;;8.10;99.90;;;;;;5035456;28;20533;-63
2023/04/21 03:26:06;;;;;;;17.88;9.20;;;8.10;99.90;;;;;;5044889;28;20135;-63
2023/04/21 03:28:32;;;;;;;22.73;9.05;;;8.10;99.90;;;;;;5026776;28;20048;-63
2023/04/21 03:30:57;;;;;;;21.05;8.88;;;8.20;99.90;;;;;;5044749;28;20082;-63
2023/04/21 03:33:24;;;;;;;17.45;7.97;;;8.10;99.90;;;;;;5030546;28;20555;-81
2023/04/21 03:35:49;;;;;;;17.60;8.30;;;8.10;99.90;;;;;;5045596;28;20049;-76
2023/04/21 03:38:15;;;;;;;18.85;8.63;;;8.10;99.90;;;;;;5025793;28;20080;-63
2023/04/21 03:40:41;;;;;;;18.67;7.72;;;8.10;99.90;;;;;;5044935;28;20052;-63
2023/04/21 03:43:07;;;;;;;16.25;7.78;;;8.10;99.90;;;;;;5044303;28;20033;-63
2023/04/21 03:45:34;;;;;;;17.13;7.70;;;8.10;99.90;;;;;;5044311;28;20045;-63
2023/04/21 03:48:00;;;;;;;15.93;8.93;;;8.10;99.90;;;;;;5045055;28;20094;-63
2023/04/21 03:50:26;;;;;;;17.25;8.00;;;8.10;99.90;;;;;;5043673;28;20045;-63
2023/04/21 03:52:52;;;;;;;13.88;8.10;;;8.10;99.90;;;;;;5045386;28;20041;-63
2023/04/21 03:55:17;;;;;;;14.95;7.32;;;8.00;99.90;;;;;;5043166;28;20033;-63
2023/04/21 03:57:43;;;;;;;18.33;8.15;;;8.00;99.90;;;;;;5011573;28;20076;-63
2023/04/21 04:00:09;;;;;;;14.20;7.28;;;8.00;99.90;;;;;;5047317;28;20388;-63
2023/04/21 04:02:36;;;;;;;15.48;8.00;;;8.00;99.90;;;;;;5040449;28;20048;-87
2023/04/21 04:05:02;;;;;;;14.68;7.82;;;7.90;99.90;;;;;;5030211;28;20043;-64
2023/04/21 04:07:28;;;;;;;20.40;7.88;;;7.90;99.90;;;;;;5047499;28;20041;-87
2023/04/21 04:09:54;;;;;;;16.67;8.32;;;7.80;99.90;;;;;;5030420;28;20398;-63
2023/04/21 04:12:20;;;;;;;17.25;7.78;;;7.80;99.90;;;;;;5046257;28;20091;-63
2023/04/21 04:14:46;;;;;;;16.02;8.13;;;7.80;99.90;;;;;;5031055;28;20048;-63
2023/04/21 04:17:11;;;;;;;20.38;8.73;;;7.80;99.90;;;;;;5028759;28;20133;-63
2023/04/21 04:19:37;;;;;;;12.57;7.25;;;7.70;99.90;;;;;;5048461;28;20041;-62
2023/04/21 04:22:03;;;;;;;16.27;8.02;;;7.70;99.90;;;;;;5029646;28;20525;-63
2023/04/21 04:24:32;;;;;;;15.70;7.45;;;7.70;99.90;;;;;;5047130;28;20033;-63
2023/04/21 04:26:58;;;;;;;14.60;8.17;;;7.70;99.90;;;;;;5048133;28;20052;-63
2023/04/21 04:29:25;;;;;;;17.52;9.02;;;7.70;99.90;;;;;;5046819;28;20060;-63
2023/04/21 04:31:51;;;;;;;17.58;9.50;;;7.80;99.90;;;;;;5047936;28;20037;-63
2023/04/21 04:34:17;;;;;;;24.60;8.18;;;7.70;99.90;;;;;;5028577;28;20094;-63
2023/04/21 04:36:44;;;;;;;18.77;8.43;;;7.70;99.90;;;;;;5048638;28;20047;-63
2023/04/21 04:39:11;;;;;;;30.20;9.07;;;7.70;99.90;;;;;;5047679;28;20487;-63
2023/04/21 04:41:37;;;;;;;11.80;7.35;;;7.80;99.90;;;;;;5046875;28;20102;-69
2023/04/21 04:44:04;;;;;;;17.48;8.32;;;7.80;99.90;;;;;;5047659;28;20045;-63
2023/04/21 04:46:32;;;;;;;15.93;8.15;;;7.80;99.90;;;;;;5046455;28;20068;-64
2023/04/21 04:49:01;;;;;;;15.60;7.53;;;7.80;99.90;;;;;;5048052;28;20037;-64
2023/04/21 04:51:27;;;;;;;16.92;7.80;;;7.90;99.90;;;;;;5045940;28;20036;-63
2023/04/21 04:53:53;;;;;;;18.08;7.53;;;8.00;99.90;;;;;;5048143;28;20060;-63
2023/04/21 04:56:19;;;;;;;20.42;7.78;;;8.00;99.90;;;;;;5046025;28;20436;-63
2023/04/21 04:58:48;;;;;;;19.75;8.45;;;8.00;99.90;;;;;;5047378;28;20041;-64
2023/04/21 05:01:17;;;;;;;17.10;7.70;;;8.00;99.90;;;;;;5013143;28;20709;-63
2023/04/21 05:03:44;;;;;;;23.90;8.25;;;8.00;99.90;;;;;;5027566;28;20079;-63
2023/04/21 05:06:10;;;;;;;14.45;7.28;;;8.10;99.90;;;;;;5029118;28;20483;-64
2023/04/21 05:08:36;;;;;;;19.13;8.48;;;8.10;99.90;;;;;;5027473;28;20052;-63
2023/04/21 05:11:02;;;;;;;17.17;7.82;;;8.10;99.90;;;;;;5047229;28;20111;-63
2023/04/21 05:13:27;;;;;;;18.77;7.75;;;8.10;99.90;;;;;;5045500;28;20146;-63
2023/04/21 05:15:57;;;;;;;21.08;7.88;;;8.20;99.90;;;;;;5047440;28;20041;-63
2023/04/21 05:18:23;;;;;;;15.65;7.80;;;8.20;99.90;;;;;;5028146;28;20032;-63
2023/04/21 05:20:49;;;;;;;19.70;8.20;;;8.20;99.90;;;;;;5046708;28;20033;-63
2023/04/21 05:23:15;;;;;;;17.02;8.05;;;8.30;99.90;;;;;;5046574;28;20252;-63
2023/04/21 05:25:40;;;;;;;16.45;7.57;;;8.30;99.90;;;;;;5046139;28;20521;-63
2023/04/21 05:28:06;;;;;;;17.27;8.05;;;8.40;99.90;;;;;;5047100;28;20068;-63
2023/04/21 05:30:32;;;;;;;18.50;7.32;;;8.40;99.90;;;;;;5045334;28;20049;-63
2023/04/21 05:32:57;;;;;;;14.45;6.85;;;8.40;99.90;;;;;;5029096;28;20052;-62
2023/04/21 05:35:23;;;;;;;25.45;8.43;;;8.50;99.90;;;;;;5045410;28;20048;-63
2023/04/21 05:37:49;;;;;;;21.52;7.65;;;8.60;99.90;;;;;;5028995;28;20048;-63
2023/04/21 05:40:15;;;;;;;23.20;7.40;;;8.60;99.90;;;;;;5046671;28;20521;-63
2023/04/21 05:42:40;;;;;;;11.00;6.53;;;8.70;99.90;;;;;;5045508;28;20103;-63
2023/04/21 05:45:06;;;;;;;14.80;7.05;;;8.70;99.90;;;;;;5025073;28;20053;-63
2023/04/21 05:47:32;;;;;;;24.90;7.82;;;8.80;99.90;;;;;;5036192;28;20052;-64
2023/04/21 05:49:58;;;;;;;19.65;7.28;;;8.90;99.90;;;;;;5028915;28;20037;-63
2023/04/21 05:52:23;;;;;;;18.65;6.93;;;8.90;99.90;;;;;;5044823;28;20055;-63
2023/04/21 05:54:49;;;;;;;18.20;7.35;;;9.00;99.90;;;;;;5028543;28;20153;-64
2023/04/21 05:57:17;;;;;;;13.70;7.10;;;9.00;99.90;;;;;;5046160;28;20037;-74
2023/04/21 05:59:43;;;;;;;20.67;7.03;;;9.00;99.90;;;;;;5027784;28;20140;-63
2023/04/21 06:02:10;;;;;;;14.25;7.07;;;9.10;99.90;;;;;;5045281;28;20120;-63
2023/04/21 06:04:35;;;;;;;22.48;6.47;;;9.20;99.90;;;;;;5045015;28;20060;-63
2023/04/21 06:07:06;;;;;;;18.50;6.78;;;9.30;99.90;;;;;;5026951;28;20045;-64
2023/04/21 06:09:32;;;;;;;12.93;6.80;;;9.50;99.90;;;;;;5026987;28;20037;-63
2023/04/21 06:11:57;;;;;;;12.02;7.22;;;9.50;99.90;;;;;;5027749;28;20109;-63
2023/04/21 06:14:23;;;;;;;15.88;7.10;;;9.50;99.90;;;;;;5042325;28;20053;-63
2023/04/21 06:16:49;;;;;;;18.88;6.70;;;9.50;99.90;;;;;;5043161;28;20044;-63
2023/04/21 06:19:15;;;;;;;15.23;6.55;;;9.50;99.90;;;;;;5040300;28;20048;-64
2023/04/21 06:21:40;;;;;;;15.68;6.82;;;9.60;99.90;;;;;;5023102;28;20440;-63
2023/04/21 06:24:06;;;;;;;21.65;7.45;;;9.70;99.90;;;;;;5027329;28;20047;-63
2023/04/21 06:26:32;;;;;;;19.90;6.70;;;9.90;99.90;;;;;;5044022;28;20146;-63
2023/04/21 06:28:58;;;;;;;24.05;7.50;;;10.20;99.90;;;;;;5027457;28;20499;-63
2023/04/21 06:31:25;;;;;;;9.70;5.65;;;10.50;99.90;;;;;;5039972;28;20037;-63
2023/04/21 06:33:50;;;;;;;10.05;6.43;;;10.70;98.60;;;;;;5027097;28;20590;-64
2023/04/21 06:36:16;;;;;;;17.70;7.03;;;10.60;98.30;;;;;;5035092;28;20067;-63
2023/04/21 06:38:42;;;;;;;13.10;5.60;;;10.60;98.50;;;;;;5044660;28;20419;-63
2023/04/21 06:41:08;;;;;;;13.77;6.10;;;10.50;99.70;;;;;;5043002;28;20458;-63
2023/04/21 06:43:35;;;;;;;14.32;6.22;;;10.40;99.90;;;;;;5035174;28;20051;-63
2023/04/21 06:46:01;;;;;;;18.00;7.28;;;10.40;99.90;;;;;;5036730;28;20045;-63
2023/04/21 06:48:28;;;;;;;11.75;6.85;;;10.40;99.90;;;;;;5022578;28;20125;-63
2023/04/21 06:50:54;;;;;;;16.85;6.43;;;10.40;99.90;;;;;;5027871;28;20075;-63
2023/04/21 06:53:20;;;;;;;22.98;7.18;;;10.40;99.90;;;;;;5044412;28;20102;-63
2023/04/21 06:55:47;;;;;;;12.82;6.35;;;10.50;99.90;;;;;;5044907;28;20098;-62
2023/04/21 06:58:13;;;;;;;18.35;7.22;;;10.60;99.90;;;;;;5042606;28;20051;-63
2023/04/21 07:00:39;;;;;;;18.50;7.47;;;10.70;99.90;;;;;;5022885;28;20072;-63
2023/04/21 07:03:05;;;;;;;14.20;4.63;;;10.90;99.90;;;;;;5036477;28;20099;-73
2023/04/21 07:05:31;;;;;;;12.18;6.22;;;11.10;99.90;;;;;;5023023;28;20392;-64
2023/04/21 07:07:58;;;;;;;14.80;5.95;;;11.20;99.90;;;;;;5026580;28;20049;-63
2023/04/21 07:10:28;;;;;;;16.50;6.82;;;11.50;97.00;;;;;;5043815;28;20048;-63
2023/04/21 07:12:54;;;;;;;10.90;6.10;;;11.70;94.80;;;;;;5039095;28;20076;-63
2023/04/21 07:15:20;;;;;;;19.52;6.85;;;11.80;95.00;;;;;;5042060;28;20045;-63
2023/04/21 07:17:46;;;;;;;15.68;6.40;;;12.00;92.50;;;;;;5033193;28;20049;-64
2023/04/21 07:20:12;;;;;;;16.13;5.93;;;12.10;91.60;;;;;;5030539;28;20175;-63
2023/04/21 07:22:38;;;;;;;17.45;7.18;;;12.20;90.90;;;;;;5033690;28;20056;-64
2023/04/21 07:25:07;;;;;;;15.80;6.03;;;12.30;92.10;;;;;;5041478;28;20041;-63
2023/04/21 07:27:35;;;;;;;9.30;6.05;;;12.50;93.10;;;;;;5043993;28;20041;-63
2023/04/21 07:30:02;;;;;;;19.77;6.30;;;12.70;90.10;;;;;;5027603;28;20055;-63
2023/04/21 07:32:28;;;;;;;21.38;6.47;;;12.80;88.20;;;;;;5045929;28;20157;-63
2023/04/21 07:34:53;;;;;;;17.17;6.57;;;12.80;86.60;;;;;;5041307;28;20519;-63
2023/04/21 07:37:20;;;;;;;12.05;6.20;;;12.90;86.10;;;;;;5045182;28;20487;-63
2023/04/21 07:39:46;;;;;;;13.82;5.75;;;13.10;85.70;;;;;;5027216;28;20071;-63
2023/04/21 07:42:12;;;;;;;11.80;5.40;;;13.10;86.80;;;;;;5048922;28;20044;-63
2023/04/21 07:44:38;;;;;;;21.65;6.72;;;13.20;82.70;;;;;;5028197;28;20041;-63
2023/04/21 07:47:04;;;;;;;10.73;5.97;;;13.30;89.50;;;;;;5030164;28;20474;-69
2023/04/21 07:49:30;;;;;;;17.00;6.40;;;13.50;88.10;;;;;;5029776;28;20102;-63
2023/04/21 07:51:56;;;;;;;16.20;6.72;;;13.50;80.90;;;;;;5047769;28;20285;-64
2023/04/21 07:54:21;;;;;;;19.70;6.25;;;13.50;84.40;;;;;;5047987;28;20095;-63
2023/04/21 07:56:47;;;;;;;14.38;6.15;;;13.60;83.30;;;;;;5029242;28;20433;-63
2023/04/21 07:59:13;;;;;;;17.13;6.10;;;13.70;78.40;;;;;;5030060;28;20057;-63
2023/04/21 08:01:38;;;;;;;18.20;6.70;;;13.80;81.90;;;;;;5047301;28;20041;-76
2023/04/21 08:04:05;;;;;;;13.48;6.55;;;13.90;79.40;;;;;;5048535;28;20037;-63
2023/04/21 08:06:32;;;;;;;16.95;6.22;;;14.00;78.10;;;;;;5046964;28;20458;-63
2023/04/21 08:08:58;;;;;;;14.35;5.65;;;14.10;81.20;;;;;;5047581;28;20106;-63
2023/04/21 08:11:24;;;;;;;17.63;6.03;;;14.20;73.60;;;;;;5047522;28;20143;-63
2023/04/21 08:13:50;;;;;;;17.17;6.80;;;14.10;74.30;;;;;;5047538;28;20057;-63
2023/04/21 08:16:16;;;;;;;17.10;6.32;;;14.30;71.10;;;;;;5047942;28;20437;-63
2023/04/21 08:18:42;;;;;;;14.98;6.15;;;14.30;68.40;;;;;;5024270;28;20048;-64
2023/04/21 08:21:07;;;;;;;12.25;6.07;;;14.40;74.10;;;;;;5048381;28;20088;-66
2023/04/21 08:23:33;;;;;;;9.65;5.60;;;14.60;70.80;;;;;;5046849;28;20049;-63
2023/04/21 08:26:01;;;;;;;17.10;5.57;;;14.80;72.00;;;;;;5029032;28;20060;-63
2023/04/21 08:28:27;;;;;;;17.02;5.88;;;14.90;68.70;;;;;;5045152;28;20144;-64
2023/04/21 08:30:52;;;;;;;10.63;5.53;;;14.90;62.50;;;;;;5046987;28;20442;-64
2023/04/21 08:33:18;;;;;;;16.40;5.60;;;15.10;63.60;;;;;;5009704;28;20118;-64
2023/04/21 08:35:44;;;;;;;18.58;6.13;;;15.20;65.00;;;;;;5036907;28;20433;-65
2023/04/21 08:38:09;;;;;;;11.93;5.85;;;15.40;57.90;;;;;;5043361;28;20037;-64
2023/04/21 08:40:37;;;;;;;9.70;5.20;;;15.40;48.30;;;;;;5045894;28;20029;-64
2023/04/21 08:43:07;;;;;;;16.63;5.20;;;15.50;53.30;;;;;;5043875;28;20116;-64
2023/04/21 08:45:34;;;;;;;10.73;5.10;;;15.60;54.70;;;;;;5045326;28;20327;-66
2023/04/21 08:48:01;;;;;;;11.93;5.35;;;15.70;50.70;;;;;;5026978;28;20183;-64
2023/04/21 08:50:28;;;;;;;14.73;4.82;;;15.90;43.20;;;;;;5028350;28;20120;-64
2023/04/21 08:52:55;;;;;;;12.27;5.20;;;16.00;37.60;;;;;;5027942;28;20128;-65
2023/04/21 08:55:40;;;;;;;17.38;5.88;;;16.00;44.40;;;;;;5022265;28;20033;-64
2023/04/21 08:58:08;;;;;;;17.88;5.38;;;16.10;46.90;;;;;;5036395;28;20033;-64
2023/04/21 09:00:37;;;;;;;17.77;5.72;;;16.20;40.00;;;;;;5033414;28;20045;-64
2023/04/21 09:03:06;;;;;;;20.02;5.20;;;16.20;41.40;;;;;;5042741;28;20067;-64
2023/04/21 09:05:33;;;;;;;16.83;6.00;;;16.20;29.20;;;;;;5041472;28;20076;-69
2023/04/21 09:08:14;;;;;;;17.42;5.15;;;16.30;33.30;;;;;;5040428;28;20047;-64
2023/04/21 09:10:45;;;;;;;16.83;5.22;;;16.40;28.00;;;;;;5042338;28;20138;-64
2023/04/21 09:13:11;;;;;;;15.18;4.95;;;16.50;34.60;;;;;;5047041;28;20057;-64
2023/04/21 09:15:44;;;;;;;21.63;5.28;;;16.60;33.40;;;;;;5045165;28;20072;-64
2023/04/21 09:18:13;;;;;;;20.60;5.25;;;16.70;31.60;;;;;;5023912;28;20049;-64
2023/04/21 09:20:39;;;;;;;15.25;4.97;;;16.70;30.00;;;;;;5046513;28;20144;-64
2023/04/21 09:23:06;;;;;;;19.23;5.65;;;16.80;38.80;;;;;;5024062;28;20053;-65
2023/04/21 09:25:33;;;;;;;9.73;5.15;;;17.00;31.70;;;;;;5038824;28;20075;-64
2023/04/21 09:28:01;;;;;;;12.13;5.13;;;17.10;27.70;;;;;;5048116;28;20447;-64
2023/04/21 09:30:27;;;;;;;11.98;4.88;;;17.10;26.10;;;;;;5038000;28;20143;-64
2023/04/21 09:32:57;;;;;;;13.45;5.10;;;17.00;32.10;;;;;;5043150;28;20583;-64
2023/04/21 09:35:38;;;;;;;16.58;5.05;;;17.10;30.10;;;;;;5045102;28;20328;-64
2023/04/21 09:38:11;;;;;;;14.13;4.97;;;17.10;26.60;;;;;;5042859;28;20634;-64
2023/04/21 09:40:39;;;;;;;15.32;4.82;;;17.10;27.80;;;;;;5037302;28;20150;-64
2023/04/21 09:43:05;;;;;;;13.18;4.88;;;17.20;25.00;;;;;;5037796;28;20048;-64
2023/04/21 09:45:32;;;;;;;17.25;4.80;;;17.40;27.60;;;;;;5037342;28;20124;-64
2023/04/21 09:48:00;;;;;;;16.23;4.82;;;17.50;24.10;;;;;;5023087;28;20041;-64
2023/04/21 09:50:27;;;;;;;9.30;4.00;;;17.50;23.40;;;;;;5023903;28;20180;-92
2023/04/21 09:52:54;;;;;;;13.20;4.78;;;17.50;24.80;;;;;;5027688;28;20071;-62
2023/04/21 09:55:29;;;;;;;12.27;4.75;;;17.50;22.10;;;;;;5023836;28;20143;-62
2023/04/21 09:57:58;;;;;;;9.07;4.15;;;17.60;22.20;;;;;;5042717;28;20055;-63
2023/04/21 10:00:29;;;;;;;13.32;5.65;;;17.80;21.40;;;;;;5044617;28;20048;-63
2023/04/21 10:02:59;;;;;;;15.05;4.68;;;17.80;15.70;;;;;;5037895;28;20131;-64
2023/04/21 10:05:25;;;;;;;12.80;4.40;;;17.80;18.40;;;;;;5046110;28;20114;-64
2023/04/21 10:07:51;;;;;;;9.55;4.35;;;17.80;14.70;;;;;;5044907;28;20041;-63
2023/04/21 10:10:26;;;;;;;12.90;3.97;;;17.90;19.30;;;;;;5010576;28;20483;-63
2023/04/21 10:12:52;;;;;;;17.25;4.93;;;18.00;18.30;;;;;;5045110;28;21154;-64
2023/04/21 10:15:38;;;;;;;16.40;5.43;;;18.00;16.30;;;;;;5045367;28;20426;-63
2023/04/21 10:18:20;;;;;;;12.95;4.22;;;18.00;15.70;;;;;;5014454;28;20082;-63
2023/04/21 10:20:57;;;;;;;15.73;4.63;;;18.10;20.00;;;;;;5027099;28;20049;-64
2023/04/21 10:23:26;;;;;;;17.17;4.38;;;18.30;13.70;;;;;;5033935;28;20502;-63
2023/04/21 10:25:52;;;;;;;19.08;5.60;;;18.30;15.60;;;;;;5045696;28;20053;-64
2023/04/21 10:28:18;;;;;;;11.77;4.30;;;18.30;15.70;;;;;;5044073;28;20122;-65
2023/04/21 10:30:44;;;;;;;13.20;4.18;;;18.40;17.00;;;;;;5042738;28;20040;-63
2023/04/21 10:33:10;;;;;;;10.05;3.88;;;18.50;17.70;;;;;;5041857;28;20041;-64
2023/04/21 10:36:02;;;;;;;11.60;4.05;;;18.50;13.30;;;;;;5045181;28;20037;-64
2023/04/21 10:38:42;;;;;;;12.15;3.70;;;18.60;9.40;;;;;;5032473;28;20049;-64
2023/04/21 10:41:27;;;;;;;;;;;18.70;9.30;;;;;;5043821;28;20052;-64
2023/04/21 10:43:53;;;;;;;11.75;4.45;;;18.70;12.80;;;;;;5045645;28;19925;-65
2023/04/21 10:46:36;;;;;;;13.55;4.78;;;18.70;11.50;;;;;;5022762;28;20045;-64
2023/04/21 10:49:22;;;;;;;16.60;4.95;;;18.70;11.50;;;;;;5032365;28;20049;-64
2023/04/21 10:51:57;;;;;;;12.45;4.00;;;18.70;8.40;;;;;;5037552;28;20403;-64
2023/04/21 10:54:24;;;;;;;15.20;3.85;;;18.80;5.60;;;;;;5037722;28;20041;-63
2023/04/21 10:56:52;;;;;;;20.50;3.72;;;18.70;1.00;;;;;;5024057;28;20049;-63
2023/04/21 10:59:18;;;;;;;7.40;3.97;;;18.80;5.20;;;;;;5040280;28;20051;-69
2023/04/21 11:01:44;;;;;;;9.70;3.67;;;18.90;9.70;;;;;;5041630;28;20401;-64
2023/04/21 11:04:17;;;;;;;15.40;4.68;;;18.90;4.20;;;;;;5040701;28;20044;-63
2023/04/21 11:07:03;;;;;;;9.52;3.50;;;18.90;5.50;;;;;;5043161;28;20103;-64
2023/04/21 11:09:29;;;;;;;13.30;4.00;;;18.90;6.00;;;;;;5042351;28;20076;-64
2023/04/21 11:12:01;;;;;;;7.03;3.67;;;19.00;6.50;;;;;;5048667;28;20123;-64
2023/04/21 11:14:27;;;;;;;10.27;3.30;;;19.10;8.20;;;;;;5048876;28;20060;-66
2023/04/21 11:16:53;;;;;;;10.77;3.70;;;19.10;4.20;;;;;;5030429;28;20390;-63
2023/04/21 11:19:23;;;;;;;16.05;4.30;;;19.20;5.00;;;;;;5049114;28;20048;-64
2023/04/21 11:21:48;;;;;;;;;;;19.20;4.80;;;;;;5031431;28;20048;-63
2023/04/21 11:24:14;;;;;;;9.82;3.00;;;19.20;1.00;;;;;;5029817;28;19921;-64
2023/04/21 11:26:41;;;;;;;12.18;3.72;;;19.20;2.20;;;;;;5031315;28;20037;-64
2023/04/21 11:29:09;;;;;;;14.60;3.90;;;19.20;1.30;;;;;;5047283;28;20083;-64
2023/04/21 11:31:36;;;;;;;14.90;3.50;;;19.30;1.30;;;;;;5049230;28;20459;-64
2023/04/21 11:34:04;;;;;;;8.90;3.17;;;19.30;1.00;;;;;;5045262;28;20275;-64
2023/04/21 11:36:32;;;;;;;9.20;3.53;;;19.40;1.00;;;;;;5045146;28;20082;-63
2023/04/21 11:38:58;;;;;;;13.75;3.67;;;19.40;1.00;;;;;;5045795;28;20044;-63
2023/04/21 11:41:24;;;;;;;12.98;3.80;;;19.50;1.00;;;;;;5012063;28;20502;-64
2023/04/21 11:43:51;;;;;;;8.75;2.80;;;19.50;1.00;;;;;;5048382;28;20044;-63
2023/04/21 11:46:21;;;;;;;7.57;2.75;;;19.40;1.00;;;;;;5046542;28;20063;-63
2023/04/21 11:49:01;;;;;;;8.80;3.28;;;19.40;1.00;;;;;;5049235;28;20076;-63
2023/04/21 11:51:31;;;;;;;;;;;19.50;1.00;;;;;;5043384;28;20040;-64
2023/04/21 11:53:58;;;;;;;10.35;2.97;;;19.60;1.00;;;;;;5042417;28;19924;-64
2023/04/21 11:56:24;;;;;;;11.60;3.40;;;19.60;1.00;;;;;;5044254;28;20538;-63
2023/04/21 11:58:54;;;;;;;5.80;2.83;;;19.60;1.00;;;;;;5041312;28;20041;-64
2023/04/21 12:01:20;;;;;;;5.22;3.20;;;19.60;1.00;;;;;;5047696;28;20186;-64
2023/04/21 12:03:54;;;;;;;6.80;3.05;;;19.70;1.00;;;;;;5036945;28;20084;-64
2023/04/21 12:06:25;;;;;;;10.85;3.63;;;19.60;1.00;;;;;;5048268;28;20144;-63
2023/04/21 12:08:59;;;;;;;14.27;3.28;;;19.60;1.00;;;;;;5047127;28;20055;-64
2023/04/21 12:11:30;;;;;;;12.38;3.25;;;19.70;1.00;;;;;;5048253;28;20055;-64
2023/04/21 12:14:00;;;;;;;7.22;2.92;;;19.80;1.00;;;;;;5046603;28;20065;-63
2023/04/21 12:16:28;;;;;;;8.23;3.42;;;19.80;1.00;;;;;;5047592;28;21098;-63
2023/04/21 12:18:55;;;;;;;18.15;3.35;;;19.90;1.00;;;;;;5047330;28;20576;-63
2023/04/21 12:21:25;;;;;;;8.75;3.08;;;19.90;1.00;;;;;;5029154;28;20040;-63
2023/04/21 12:23:51;;;;;;;9.00;3.47;;;20.00;1.00;;;;;;5048812;28;20041;-63
2023/04/21 12:26:17;;;;;;;11.07;3.63;;;20.00;1.00;;;;;;5028959;28;20482;-63
2023/04/21 12:28:43;;;;;;;6.03;2.85;;;20.00;1.00;;;;;;5030009;28;20048;-64
2023/04/21 12:31:09;;;;;;;12.55;2.95;;;20.00;1.00;;;;;;5029696;28;20048;-64
2023/04/21 12:33:35;;;;;;;7.30;2.40;;;20.20;1.00;;;;;;5012916;28;20514;-64
2023/04/21 12:36:00;;;;;;;6.75;3.05;;;20.20;1.00;;;;;;5047954;28;20037;-63
2023/04/21 12:38:26;;;;;;;5.13;2.53;;;20.10;1.00;;;;;;5046693;28;20540;-64
2023/04/21 12:40:52;;;;;;;8.60;2.40;;;20.10;1.00;;;;;;5048187;28;20041;-64
2023/04/21 12:43:18;;;;;;;16.10;3.05;;;20.20;1.00;;;;;;5046452;28;20080;-63
2023/04/21 12:45:43;;;;;;;9.70;3.17;;;20.30;1.00;;;;;;5009802;28;20377;-64